Time;durP1;ratioP1;P1;durP2;ratioP2;P2;SDS_P1;SDS_P2;PMS_P1;PMS_P2;Temp;Humidity;BMP_temperature;BMP_pressure;BME280_temperature;BME280_humidity;BME280_pressure;Samples;Min_cycle;Max_cycle;Signal;HPM_P1;HPM_P2
2023/05/31 00:01:25;;;;;;;2.28;1.80;;;;;;;;;;6121245;23;20045;-82
2023/05/31 00:03:51;;;;;;;3.03;1.73;;;;;;;;;;6120531;23;20041;-83
2023/05/31 00:06:17;;;;;;;6.65;2.95;;;;;;;;;;6121347;23;20018;-82
2023/05/31 00:08:43;;;;;;;4.47;2.25;;;;;;;;;;6119563;23;20037;-82
2023/05/31 00:11:10;;;;;;;5.20;1.90;;;;;;;;;;6122524;23;20075;-82
2023/05/31 00:13:36;;;;;;;4.18;1.95;;;;;;;;;;6119794;23;20017;-83
2023/05/31 00:16:02;;;;;;;4.72;2.10;;;;;;;;;;6119867;23;20014;-83
2023/05/31 00:18:28;;;;;;;3.67;1.63;;;;;;;;;;6119531;23;20029;-83
2023/05/31 00:20:54;;;;;;;4.75;2.00;;;;;;;;;;6121729;23;20013;-82
2023/05/31 00:23:20;;;;;;;5.47;1.90;;;;;;;;;;6118878;23;20096;-83
2023/05/31 00:25:46;;;;;;;5.63;2.15;;;;;;;;;;6121322;23;20447;-83
2023/05/31 00:28:12;;;;;;;3.28;1.83;;;;;;;;;;6122709;23;20017;-83
2023/05/31 00:30:38;;;;;;;2.42;1.80;;;;;;;;;;6119991;23;20184;-83
2023/05/31 00:33:05;;;;;;;4.70;2.20;;;;;;;;;;6122733;23;20021;-83
2023/05/31 00:35:31;;;;;;;4.03;1.77;;;;;;;;;;6121072;23;20054;-83
2023/05/31 00:37:57;;;;;;;3.28;2.03;;;;;;;;;;6120689;23;20084;-84
2023/05/31 00:40:23;;;;;;;3.20;1.83;;;;;;;;;;6119730;23;20018;-84
2023/05/31 00:42:49;;;;;;;3.47;1.95;;;;;;;;;;6120109;23;20042;-82
2023/05/31 00:45:15;;;;;;;4.47;2.17;;;;;;;;;;6122650;23;20018;-83
2023/05/31 00:47:41;;;;;;;4.22;1.90;;;;;;;;;;6122082;23;20025;-80
2023/05/31 00:50:07;;;;;;;3.25;1.85;;;;;;;;;;6123431;23;20024;-84
2023/05/31 00:52:34;;;;;;;5.72;2.33;;;;;;;;;;6119406;23;20018;-83
2023/05/31 00:55:00;;;;;;;4.32;2.08;;;;;;;;;;6123898;23;20010;-83
2023/05/31 00:57:27;;;;;;;4.95;2.25;;;;;;;;;;6121159;23;20550;-83
2023/05/31 00:59:53;;;;;;;2.65;1.95;;;;;;;;;;6122058;23;20050;-83
2023/05/31 01:02:19;;;;;;;4.88;2.17;;;;;;;;;;6121788;23;20029;-83
2023/05/31 01:04:45;;;;;;;4.43;2.17;;;;;;;;;;6122052;23;20024;-83
2023/05/31 01:07:11;;;;;;;4.07;2.00;;;;;;;;;;6123691;23;20085;-83
2023/05/31 01:09:42;;;;;;;4.78;1.83;;;;;;;;;;6120802;23;20116;-83
2023/05/31 01:12:08;;;;;;;4.68;2.15;;;;;;;;;;6122393;23;20380;-83
2023/05/31 01:14:37;;;;;;;4.53;1.92;;;;;;;;;;6122072;23;20009;-83
2023/05/31 01:17:13;;;;;;;5.95;2.28;;;;;;;;;;6122930;23;20045;-84
2023/05/31 01:19:47;;;;;;;5.43;1.90;;;;;;;;;;6119918;23;20026;-83
2023/05/31 01:22:23;;;;;;;5.80;2.28;;;;;;;;;;6123313;23;20045;-83
2023/05/31 01:25:04;;;;;;;4.55;2.13;;;;;;;;;;6097475;23;20049;-83
2023/05/31 01:27:31;;;;;;;6.18;2.33;;;;;;;;;;6121657;23;20064;-83
2023/05/31 01:29:58;;;;;;;5.78;2.53;;;;;;;;;;6123707;23;20021;-83
2023/05/31 01:32:25;;;;;;;3.50;1.80;;;;;;;;;;6121621;23;20022;-83
2023/05/31 01:34:51;;;;;;;4.82;2.40;;;;;;;;;;6121663;23;20089;-83
2023/05/31 01:37:17;;;;;;;4.47;2.13;;;;;;;;;;6123182;23;20022;-83
2023/05/31 01:39:43;;;;;;;4.20;2.22;;;;;;;;;;6121404;23;20018;-83
2023/05/31 01:42:09;;;;;;;4.53;2.55;;;;;;;;;;6121117;23;20025;-83
2023/05/31 01:44:36;;;;;;;4.82;2.70;;;;;;;;;;6122099;23;20336;-83
2023/05/31 01:47:02;;;;;;;4.07;2.60;;;;;;;;;;6123255;23;20017;-83
2023/05/31 01:49:29;;;;;;;4.57;2.08;;;;;;;;;;6122738;23;20041;-82
2023/05/31 01:51:56;;;;;;;4.47;2.63;;;;;;;;;;6097522;23;20014;-84
2023/05/31 01:54:22;;;;;;;2.58;2.25;;;;;;;;;;6123017;23;20014;-83
2023/05/31 01:56:49;;;;;;;4.18;2.03;;;;;;;;;;6122767;23;20020;-83
2023/05/31 01:59:16;;;;;;;4.40;2.30;;;;;;;;;;6121495;23;20077;-83
2023/05/31 02:01:42;;;;;;;3.22;1.80;;;;;;;;;;6120441;23;20022;-83
2023/05/31 02:04:08;;;;;;;6.03;2.83;;;;;;;;;;6121255;23;20018;-83
2023/05/31 02:06:38;;;;;;;3.63;2.17;;;;;;;;;;6095500;23;20144;-83
2023/05/31 02:09:06;;;;;;;5.60;2.72;;;;;;;;;;6121243;23;20131;-83
2023/05/31 02:11:32;;;;;;;4.82;2.20;;;;;;;;;;6121827;23;20068;-83
2023/05/31 02:13:58;;;;;;;3.78;2.47;;;;;;;;;;6123055;23;20014;-83
2023/05/31 02:16:24;;;;;;;3.92;2.38;;;;;;;;;;6095968;23;20029;-83
2023/05/31 02:18:51;;;;;;;4.88;2.22;;;;;;;;;;6121379;23;20018;-83
2023/05/31 02:21:17;;;;;;;4.15;2.30;;;;;;;;;;6122394;23;20354;-83
2023/05/31 02:23:43;;;;;;;5.30;2.25;;;;;;;;;;6122461;23;20018;-82
2023/05/31 02:26:09;;;;;;;2.97;1.88;;;;;;;;;;6122007;23;20020;-83
2023/05/31 02:28:35;;;;;;;3.85;2.40;;;;;;;;;;6120381;23;20029;-82
2023/05/31 02:31:01;;;;;;;5.25;2.50;;;;;;;;;;6123341;23;20076;-83
2023/05/31 02:33:28;;;;;;;3.67;2.17;;;;;;;;;;6120589;23;20026;-83
2023/05/31 02:35:56;;;;;;;4.90;2.47;;;;;;;;;;6122501;23;20014;-83
2023/05/31 02:38:22;;;;;;;4.95;2.33;;;;;;;;;;6118996;23;20022;-81
2023/05/31 02:40:48;;;;;;;4.55;2.20;;;;;;;;;;6120664;23;20440;-82
2023/05/31 02:43:15;;;;;;;5.25;2.65;;;;;;;;;;6123022;23;20104;-82
2023/05/31 02:45:41;;;;;;;4.85;2.90;;;;;;;;;;6120077;23;20021;-83
2023/05/31 02:48:07;;;;;;;5.97;2.60;;;;;;;;;;6121180;23;20026;-82
2023/05/31 02:50:33;;;;;;;5.28;2.70;;;;;;;;;;6120378;23;20041;-83
2023/05/31 02:53:00;;;;;;;5.13;2.13;;;;;;;;;;6120479;23;20018;-82
2023/05/31 02:55:27;;;;;;;5.10;2.53;;;;;;;;;;6119715;23;20025;-82
2023/05/31 02:57:53;;;;;;;5.05;2.50;;;;;;;;;;6121500;23;20040;-82
2023/05/31 03:00:20;;;;;;;3.80;2.22;;;;;;;;;;6120432;23;20021;-83
2023/05/31 03:02:46;;;;;;;5.68;2.78;;;;;;;;;;6120847;23;20065;-82
2023/05/31 03:05:12;;;;;;;4.40;2.80;;;;;;;;;;6121186;23;20022;-83
2023/05/31 03:07:38;;;;;;;7.13;3.30;;;;;;;;;;6119607;23;20074;-83
2023/05/31 03:10:05;;;;;;;4.13;2.30;;;;;;;;;;6120390;23;20017;-83
2023/05/31 03:12:31;;;;;;;4.85;2.50;;;;;;;;;;6121564;23;20041;-82
2023/05/31 03:14:57;;;;;;;6.32;2.40;;;;;;;;;;6120972;23;20018;-82
2023/05/31 03:17:23;;;;;;;6.72;2.45;;;;;;;;;;6119805;23;20343;-83
2023/05/31 03:19:49;;;;;;;5.18;2.60;;;;;;;;;;6120716;23;20018;-82
2023/05/31 03:22:15;;;;;;;4.60;2.75;;;;;;;;;;6119922;23;20329;-82
2023/05/31 03:24:41;;;;;;;5.68;2.33;;;;;;;;;;6119229;23;20021;-82
2023/05/31 03:27:07;;;;;;;5.18;2.45;;;;;;;;;;6120230;23;20014;-82
2023/05/31 03:29:38;;;;;;;4.63;2.40;;;;;;;;;;6119874;23;20487;-82
2023/05/31 03:32:04;;;;;;;3.13;2.15;;;;;;;;;;6120975;23;20025;-82
2023/05/31 03:34:30;;;;;;;4.15;2.25;;;;;;;;;;6119618;23;20444;-82
2023/05/31 03:36:56;;;;;;;4.05;2.53;;;;;;;;;;6120064;23;20049;-81
2023/05/31 03:39:22;;;;;;;7.03;2.78;;;;;;;;;;6120101;23;20418;-82
2023/05/31 03:41:48;;;;;;;4.25;2.63;;;;;;;;;;6122667;23;20103;-82
2023/05/31 03:44:14;;;;;;;5.53;2.47;;;;;;;;;;6120763;23;20207;-81
2023/05/31 03:46:40;;;;;;;5.57;2.63;;;;;;;;;;6117394;23;20022;-80
2023/05/31 03:49:06;;;;;;;5.95;2.72;;;;;;;;;;6121532;23;20204;-82
2023/05/31 03:51:32;;;;;;;5.25;2.85;;;;;;;;;;6121613;23;20021;-82
2023/05/31 03:53:58;;;;;;;5.50;2.72;;;;;;;;;;6120422;23;20014;-82
2023/05/31 03:56:25;;;;;;;5.40;2.45;;;;;;;;;;6119672;23;20470;-82
2023/05/31 03:58:51;;;;;;;6.80;3.03;;;;;;;;;;6120658;23;20029;-80
2023/05/31 04:01:17;;;;;;;6.07;2.72;;;;;;;;;;6120489;23;20021;-80
2023/05/31 04:03:43;;;;;;;4.60;3.20;;;;;;;;;;6121005;23;20339;-80
2023/05/31 04:06:10;;;;;;;4.40;2.50;;;;;;;;;;6095750;23;20022;-80
2023/05/31 04:08:36;;;;;;;5.15;2.67;;;;;;;;;;6119414;23;20022;-80
2023/05/31 04:11:02;;;;;;;6.18;3.05;;;;;;;;;;6120646;23;20127;-80
2023/05/31 04:13:28;;;;;;;3.88;2.03;;;;;;;;;;6095206;23;20022;-82
2023/05/31 04:15:54;;;;;;;4.13;2.80;;;;;;;;;;6119644;23;20014;-82
2023/05/31 04:18:20;;;;;;;6.80;2.67;;;;;;;;;;6119687;23;20018;-82
2023/05/31 04:20:46;;;;;;;5.45;2.65;;;;;;;;;;6119977;23;20587;-83
2023/05/31 04:23:12;;;;;;;6.78;3.05;;;;;;;;;;6121379;23;20017;-82
2023/05/31 04:25:38;;;;;;;10.27;3.50;;;;;;;;;;6119043;23;20030;-81
2023/05/31 04:28:06;;;;;;;5.65;3.05;;;;;;;;;;6122537;23;20092;-80
2023/05/31 04:30:33;;;;;;;6.68;3.55;;;;;;;;;;6121298;23;20080;-80
2023/05/31 04:32:59;;;;;;;6.28;3.75;;;;;;;;;;6122199;23;20048;-80
2023/05/31 04:35:28;;;;;;;8.40;3.13;;;;;;;;;;6121419;23;20072;-82
2023/05/31 04:37:58;;;;;;;7.03;3.25;;;;;;;;;;6122212;23;20021;-81
2023/05/31 04:40:25;;;;;;;8.15;3.83;;;;;;;;;;6121899;23;20009;-81
2023/05/31 04:42:51;;;;;;;9.10;3.95;;;;;;;;;;6123806;23;20010;-81
2023/05/31 04:45:17;;;;;;;7.93;3.40;;;;;;;;;;6121798;23;20105;-82
2023/05/31 04:47:45;;;;;;;9.55;3.70;;;;;;;;;;6121273;23;20049;-81
2023/05/31 04:50:11;;;;;;;7.45;3.72;;;;;;;;;;6124353;23;19939;-81
2023/05/31 04:52:40;;;;;;;7.45;3.50;;;;;;;;;;6120814;23;20021;-81
2023/05/31 04:55:06;;;;;;;8.10;3.58;;;;;;;;;;6123694;23;20052;-82
2023/05/31 04:57:33;;;;;;;8.32;4.60;;;;;;;;;;6122841;23;20010;-81
2023/05/31 04:59:59;;;;;;;8.32;4.38;;;;;;;;;;6124308;23;20021;-82
2023/05/31 05:02:26;;;;;;;8.35;3.60;;;;;;;;;;6123267;23;20018;-82
2023/05/31 05:04:52;;;;;;;7.80;3.83;;;;;;;;;;6123209;23;20331;-81
2023/05/31 05:07:20;;;;;;;7.38;3.80;;;;;;;;;;6121130;23;20021;-82
2023/05/31 05:09:46;;;;;;;7.35;3.95;;;;;;;;;;6123690;23;20017;-82
2023/05/31 05:12:12;;;;;;;7.53;4.07;;;;;;;;;;6122081;23;20097;-81
2023/05/31 05:14:38;;;;;;;8.38;4.05;;;;;;;;;;6120652;23;20025;-84
2023/05/31 05:17:05;;;;;;;9.35;4.05;;;;;;;;;;6119950;23;20014;-82
2023/05/31 05:19:31;;;;;;;9.55;5.20;;;;;;;;;;6121423;23;20335;-84
2023/05/31 05:21:57;;;;;;;8.25;3.75;;;;;;;;;;6122154;23;20025;-87
2023/05/31 05:24:23;;;;;;;8.77;3.95;;;;;;;;;;6122940;23;20029;-85
2023/05/31 05:26:49;;;;;;;7.90;3.47;;;;;;;;;;6121463;23;20017;-86
2023/05/31 05:29:15;;;;;;;7.00;3.53;;;;;;;;;;6121737;23;20054;-86
2023/05/31 05:31:41;;;;;;;8.10;3.95;;;;;;;;;;6119498;23;20018;-85
2023/05/31 05:34:09;;;;;;;6.32;3.10;;;;;;;;;;6123146;23;20088;-84
2023/05/31 05:36:36;;;;;;;10.02;3.58;;;;;;;;;;6123107;23;20100;-86
2023/05/31 05:39:05;;;;;;;5.65;3.65;;;;;;;;;;6121713;23;20093;-85
2023/05/31 05:41:31;;;;;;;6.65;3.20;;;;;;;;;;6120297;23;20022;-93
2023/05/31 05:43:57;;;;;;;4.72;3.30;;;;;;;;;;6122119;23;20080;-86
2023/05/31 05:46:24;;;;;;;5.60;3.50;;;;;;;;;;6122676;23;20020;-89
2023/05/31 05:48:50;;;;;;;5.70;3.30;;;;;;;;;;6121918;23;20046;-85
2023/05/31 05:51:16;;;;;;;8.02;3.70;;;;;;;;;;6122261;23;20022;-86
2023/05/31 05:53:42;;;;;;;7.15;3.33;;;;;;;;;;6123336;23;20021;-85
2023/05/31 05:56:08;;;;;;;7.10;3.67;;;;;;;;;;6122062;23;20014;-83
2023/05/31 05:58:34;;;;;;;7.55;3.58;;;;;;;;;;6122830;23;20021;-86
2023/05/31 06:01:02;;;;;;;5.70;3.50;;;;;;;;;;6123714;23;20046;-88
2023/05/31 06:03:30;;;;;;;7.45;3.83;;;;;;;;;;6120638;23;20025;-89
2023/05/31 06:05:56;;;;;;;7.30;3.63;;;;;;;;;;6122310;23;20387;-83
2023/05/31 06:08:22;;;;;;;5.57;3.45;;;;;;;;;;6122607;23;20014;-88
2023/05/31 06:10:48;;;;;;;5.97;3.20;;;;;;;;;;6119702;23;20080;-87
2023/05/31 06:13:15;;;;;;;4.65;3.38;;;;;;;;;;6121108;23;20455;-88
2023/05/31 06:15:41;;;;;;;5.85;3.40;;;;;;;;;;6120028;23;20018;-87
2023/05/31 06:18:08;;;;;;;6.25;3.97;;;;;;;;;;6120489;23;20072;-88
2023/05/31 06:20:34;;;;;;;7.05;3.60;;;;;;;;;;6122154;23;20018;-86
2023/05/31 06:23:00;;;;;;;6.35;3.50;;;;;;;;;;6123379;23;20017;-91
2023/05/31 06:25:26;;;;;;;5.53;3.15;;;;;;;;;;6096805;23;20022;-88
2023/05/31 06:27:52;;;;;;;4.97;2.97;;;;;;;;;;6121513;23;20073;-88
2023/05/31 06:30:19;;;;;;;11.27;3.55;;;;;;;;;;6120632;23;20021;-92
2023/05/31 06:32:45;;;;;;;5.55;3.72;;;;;;;;;;6122363;23;20085;-87
2023/05/31 06:35:11;;;;;;;5.65;2.72;;;;;;;;;;6122897;23;20049;-88
2023/05/31 06:37:37;;;;;;;5.88;2.90;;;;;;;;;;6120609;23;20014;-84
2023/05/31 06:40:04;;;;;;;5.93;3.03;;;;;;;;;;6121134;23;20049;-83
2023/05/31 06:42:30;;;;;;;7.60;2.67;;;;;;;;;;6120445;23;20018;-82
2023/05/31 06:44:56;;;;;;;3.67;2.17;;;;;;;;;;6125354;23;20092;-92
2023/05/31 06:47:22;;;;;;;4.32;2.53;;;;;;;;;;6124937;23;20121;-85
2023/05/31 06:49:48;;;;;;;5.88;3.10;;;;;;;;;;6122045;23;20045;-85
2023/05/31 06:52:14;;;;;;;5.70;2.50;;;;;;;;;;6124052;23;20076;-94
2023/05/31 06:54:41;;;;;;;6.53;2.53;;;;;;;;;;6124629;23;20010;-90
2023/05/31 06:57:07;;;;;;;5.70;2.30;;;;;;;;;;6125178;23;20022;-93
2023/05/31 06:59:33;;;;;;;3.10;2.03;;;;;;;;;;6127616;23;20104;-92
2023/05/31 07:01:59;;;;;;;5.60;2.08;;;;;;;;;;6126937;23;20022;-91
2023/05/31 07:04:25;;;;;;;4.90;2.15;;;;;;;;;;6123037;23;20097;-87
2023/05/31 07:06:51;;;;;;;3.47;2.10;;;;;;;;;;6123973;23;20018;-89
2023/05/31 07:09:17;;;;;;;4.93;2.63;;;;;;;;;;6099479;23;20018;-95
2023/05/31 07:11:43;;;;;;;6.63;2.95;;;;;;;;;;6124069;23;20092;-91
2023/05/31 07:14:09;;;;;;;5.85;2.72;;;;;;;;;;6120905;23;20046;-86
2023/05/31 07:16:36;;;;;;;4.55;3.13;;;;;;;;;;6121956;23;20013;-86
2023/05/31 07:19:02;;;;;;;5.75;2.47;;;;;;;;;;6121048;23;20024;-86
2023/05/31 07:21:28;;;;;;;4.20;2.45;;;;;;;;;;6121838;23;20018;-87
2023/05/31 07:23:55;;;;;;;3.38;2.30;;;;;;;;;;6119374;23;20022;-86
2023/05/31 07:26:22;;;;;;;4.82;2.67;;;;;;;;;;6119410;23;20069;-83
2023/05/31 07:28:48;;;;;;;4.60;2.55;;;;;;;;;;6119828;23;20029;-86
2023/05/31 07:31:17;;;;;;;5.28;3.00;;;;;;;;;;6120473;23;20057;-84
2023/05/31 07:33:43;;;;;;;5.28;2.88;;;;;;;;;;6118434;23;20018;-85
2023/05/31 07:36:09;;;;;;;5.75;3.05;;;;;;;;;;6096624;23;20024;-83
2023/05/31 07:38:39;;;;;;;7.15;2.90;;;;;;;;;;6118232;23;20030;-82
2023/05/31 07:41:05;;;;;;;6.38;2.97;;;;;;;;;;6121000;23;20014;-81
2023/05/31 07:43:32;;;;;;;6.40;3.30;;;;;;;;;;6120709;23;20073;-81
2023/05/31 07:45:58;;;;;;;7.43;3.50;;;;;;;;;;6119905;23;20093;-80
2023/05/31 07:48:25;;;;;;;5.40;3.17;;;;;;;;;;6121726;23;20010;-83
2023/05/31 07:50:51;;;;;;;6.30;2.92;;;;;;;;;;6121409;23;20018;-82
2023/05/31 07:53:17;;;;;;;5.43;3.00;;;;;;;;;;6120217;23;20020;-82
2023/05/31 07:55:45;;;;;;;5.72;3.25;;;;;;;;;;6119213;23;20093;-80
2023/05/31 07:58:11;;;;;;;4.90;3.00;;;;;;;;;;6121545;23;20014;-81
2023/05/31 08:00:41;;;;;;;4.45;2.95;;;;;;;;;;6117732;23;20026;-83
2023/05/31 08:03:07;;;;;;;5.55;2.95;;;;;;;;;;6118389;23;20033;-82
2023/05/31 08:05:33;;;;;;;4.80;2.88;;;;;;;;;;6119744;23;20018;-82
2023/05/31 08:08:00;;;;;;;6.05;2.75;;;;;;;;;;6120534;23;20025;-81
2023/05/31 08:10:26;;;;;;;5.78;2.97;;;;;;;;;;6119515;23;20084;-86
2023/05/31 08:12:52;;;;;;;5.78;2.25;;;;;;;;;;6120879;23;20029;-86
2023/05/31 08:15:18;;;;;;;5.53;2.83;;;;;;;;;;6119420;23;20439;-85
2023/05/31 08:17:44;;;;;;;4.63;2.25;;;;;;;;;;6120555;23;20458;-86
2023/05/31 08:20:15;;;;;;;10.65;2.50;;;;;;;;;;6122406;23;20343;-84
2023/05/31 08:22:44;;;;;;;4.85;1.83;;;;;;;;;;6117907;23;20024;-87
2023/05/31 08:25:14;;;;;;;4.28;2.10;;;;;;;;;;6095762;23;20093;-85
2023/05/31 08:27:40;;;;;;;2.78;1.80;;;;;;;;;;6120937;23;20053;-89
2023/05/31 08:30:09;;;;;;;4.43;1.92;;;;;;;;;;6119551;23;20026;-85
2023/05/31 08:32:35;;;;;;;3.70;2.20;;;;;;;;;;6119584;23;20363;-85
2023/05/31 08:35:01;;;;;;;3.33;1.92;;;;;;;;;;6121309;23;20135;-90
2023/05/31 08:37:27;;;;;;;3.97;1.73;;;;;;;;;;6120099;23;20089;-90
2023/05/31 08:39:53;;;;;;;2.80;1.83;;;;;;;;;;6122124;23;20056;-90
2023/05/31 08:42:25;;;;;;;4.15;2.35;;;;;;;;;;6119487;23;20097;-89
2023/05/31 08:44:51;;;;;;;6.72;1.70;;;;;;;;;;6122438;23;20018;-89
2023/05/31 08:47:29;;;;;;;4.43;1.73;;;;;;;;;;6120265;23;20022;-86
2023/05/31 08:49:55;;;;;;;3.55;2.28;;;;;;;;;;6120669;23;20022;-85
2023/05/31 08:52:21;;;;;;;4.40;2.00;;;;;;;;;;6094104;23;20025;-84
2023/05/31 08:54:48;;;;;;;3.75;2.20;;;;;;;;;;6118261;23;20213;-84
2023/05/31 08:57:15;;;;;;;3.83;2.70;;;;;;;;;;6119808;23;20317;-86
2023/05/31 08:59:41;;;;;;;3.42;1.90;;;;;;;;;;6119357;23;20049;-87
2023/05/31 09:02:09;;;;;;;3.83;1.80;;;;;;;;;;6120218;23;20018;-86
2023/05/31 09:04:35;;;;;;;3.53;2.17;;;;;;;;;;6094010;23;20365;-87
2023/05/31 09:07:01;;;;;;;3.92;2.10;;;;;;;;;;6121480;23;20309;-84
2023/05/31 09:09:28;;;;;;;5.32;2.30;;;;;;;;;;6093993;23;20092;-85
2023/05/31 09:11:54;;;;;;;3.55;2.03;;;;;;;;;;6120272;23;20010;-82
2023/05/31 09:14:20;;;;;;;4.78;2.10;;;;;;;;;;6120497;23;20022;-82
2023/05/31 09:16:47;;;;;;;5.35;1.83;;;;;;;;;;6121423;23;20028;-82
2023/05/31 09:19:13;;;;;;;2.53;1.67;;;;;;;;;;6123486;23;20018;-79
2023/05/31 09:21:40;;;;;;;4.32;2.15;;;;;;;;;;6119225;23;20076;-79
2023/05/31 09:24:07;;;;;;;4.10;1.90;;;;;;;;;;6121632;23;20018;-81
2023/05/31 09:26:33;;;;;;;4.00;2.15;;;;;;;;;;6119648;23;20018;-79
2023/05/31 09:29:00;;;;;;;4.55;2.17;;;;;;;;;;6122290;23;20018;-82
2023/05/31 09:31:27;;;;;;;4.90;2.13;;;;;;;;;;6119536;23;20022;-79
2023/05/31 09:33:56;;;;;;;2.70;1.65;;;;;;;;;;6121921;23;20018;-80
2023/05/31 09:36:26;;;;;;;4.07;2.00;;;;;;;;;;6122463;23;20045;-82
2023/05/31 09:39:00;;;;;;;2.90;1.83;;;;;;;;;;6121149;23;20026;-84
2023/05/31 09:41:26;;;;;;;5.95;2.20;;;;;;;;;;6095086;23;20514;-82
2023/05/31 09:43:52;;;;;;;3.22;2.20;;;;;;;;;;6120963;23;20100;-86
2023/05/31 09:46:19;;;;;;;4.25;1.75;;;;;;;;;;6122975;23;20018;-86
2023/05/31 09:48:46;;;;;;;3.25;2.03;;;;;;;;;;6122890;23;20064;-85
2023/05/31 09:51:15;;;;;;;5.30;2.40;;;;;;;;;;6123800;23;20010;-83
2023/05/31 09:53:43;;;;;;;4.13;2.45;;;;;;;;;;6120151;23;20024;-83
2023/05/31 09:56:17;;;;;;;5.35;2.45;;;;;;;;;;6120193;23;20022;-83
2023/05/31 09:58:43;;;;;;;3.33;1.88;;;;;;;;;;6122938;23;20017;-84
2023/05/31 10:01:10;;;;;;;4.75;1.90;;;;;;;;;;6125535;23;20033;-83
2023/05/31 10:03:36;;;;;;;4.40;1.92;;;;;;;;;;6122993;23;20053;-83
2023/05/31 10:06:03;;;;;;;4.70;2.40;;;;;;;;;;6122187;23;20018;-86
2023/05/31 10:08:31;;;;;;;2.17;1.80;;;;;;;;;;6122788;23;20097;-83
2023/05/31 10:10:59;;;;;;;4.32;1.80;;;;;;;;;;6122027;23;20013;-86
2023/05/31 10:13:26;;;;;;;5.55;2.33;;;;;;;;;;6123893;23;20037;-87
2023/05/31 10:15:55;;;;;;;4.13;3.00;;;;;;;;;;6125961;23;20014;-85
2023/05/31 10:18:23;;;;;;;3.92;2.03;;;;;;;;;;6124138;23;20469;-88
2023/05/31 10:20:52;;;;;;;7.07;2.20;;;;;;;;;;6122388;23;20041;-85
2023/05/31 10:23:22;;;;;;;5.22;2.20;;;;;;;;;;6123634;23;20014;-86
2023/05/31 10:25:51;;;;;;;3.50;1.63;;;;;;;;;;6123033;23;20073;-85
2023/05/31 10:28:21;;;;;;;5.07;2.40;;;;;;;;;;6121746;23;20049;-83
2023/05/31 10:30:49;;;;;;;4.65;2.40;;;;;;;;;;6122886;23;20037;-87
2023/05/31 10:33:16;;;;;;;2.42;1.50;;;;;;;;;;6121703;23;20361;-82
2023/05/31 10:35:42;;;;;;;5.88;3.45;;;;;;;;;;6120749;23;20025;-85
2023/05/31 10:38:08;;;;;;;3.95;2.20;;;;;;;;;;6121749;23;20014;-85
2023/05/31 10:40:44;;;;;;;3.45;1.90;;;;;;;;;;6119879;23;20081;-85
2023/05/31 10:43:13;;;;;;;6.53;2.28;;;;;;;;;;6123305;23;20010;-85
2023/05/31 10:45:42;;;;;;;4.10;2.22;;;;;;;;;;6122044;23;20371;-84
2023/05/31 10:48:29;;;;;;;4.95;3.05;;;;;;;;;;6120812;23;20027;-86
2023/05/31 10:50:55;;;;;;;5.43;2.83;;;;;;;;;;6120869;23;20057;-87
2023/05/31 10:53:21;;;;;;;4.35;2.40;;;;;;;;;;6122096;23;20010;-84
2023/05/31 10:55:49;;;;;;;3.13;2.42;;;;;;;;;;6121365;23;20315;-86
2023/05/31 10:58:45;;;;;;;7.15;2.65;;;;;;;;;;6122578;23;20013;-87
2023/05/31 11:01:14;;;;;;;6.80;3.08;;;;;;;;;;6097146;23;20014;-84
2023/05/31 11:03:47;;;;;;;6.70;2.03;;;;;;;;;;6122078;23;20072;-87
2023/05/31 11:06:14;;;;;;;3.78;2.20;;;;;;;;;;6121420;23;20020;-85
2023/05/31 11:08:57;;;;;;;4.05;2.45;;;;;;;;;;6119678;23;20021;-87
2023/05/31 11:11:27;;;;;;;4.85;2.65;;;;;;;;;;6120004;23;20022;-84
2023/05/31 11:14:00;;;;;;;5.13;2.85;;;;;;;;;;6122306;23;20093;-84
2023/05/31 11:16:27;;;;;;;3.70;2.50;;;;;;;;;;6122574;23;20379;-86
2023/05/31 11:19:03;;;;;;;5.93;2.42;;;;;;;;;;6121200;23;20025;-84
2023/05/31 11:21:47;;;;;;;4.93;2.60;;;;;;;;;;6095121;23;20057;-86
2023/05/31 11:24:28;;;;;;;7.93;3.30;;;;;;;;;;6123081;23;20022;-84
2023/05/31 11:26:54;;;;;;;6.28;2.65;;;;;;;;;;6122923;23;20068;-84
2023/05/31 11:29:20;;;;;;;4.85;2.25;;;;;;;;;;6122602;23;20014;-87
2023/05/31 11:31:57;;;;;;;6.25;2.53;;;;;;;;;;6123031;23;20010;-85
2023/05/31 11:34:28;;;;;;;7.30;3.53;;;;;;;;;;6120956;23;20435;-84
2023/05/31 11:36:56;;;;;;;8.50;2.95;;;;;;;;;;6122812;23;20010;-86
2023/05/31 11:39:23;;;;;;;7.60;2.90;;;;;;;;;;6120508;23;20013;-86
2023/05/31 11:41:49;;;;;;;7.28;3.40;;;;;;;;;;6122916;23;20025;-86
2023/05/31 11:44:17;;;;;;;8.23;3.22;;;;;;;;;;6123094;23;20021;-84
2023/05/31 11:46:46;;;;;;;5.18;2.75;;;;;;;;;;6120500;23;20347;-87
2023/05/31 11:49:13;;;;;;;5.95;3.00;;;;;;;;;;6123068;23;20017;-83
2023/05/31 11:51:43;;;;;;;5.20;2.92;;;;;;;;;;6119809;23;20032;-86
2023/05/31 11:54:11;;;;;;;;;;;;;;;;;;6123466;23;20017;-87
2023/05/31 11:56:37;;;;;;;;;;;;;;;;;;6120696;23;19978;-85
2023/05/31 11:59:03;;;;;;;5.35;2.63;;;;;;;;;;6121047;23;19915;-84
2023/05/31 12:01:42;;;;;;;3.83;2.60;;;;;;;;;;6121692;23;20020;-84
2023/05/31 12:04:08;;;;;;;4.97;3.10;;;;;;;;;;6096691;23;20025;-84
2023/05/31 12:06:35;;;;;;;5.45;3.22;;;;;;;;;;6121266;23;20339;-90
2023/05/31 12:09:02;;;;;;;10.30;3.67;;;;;;;;;;6119938;23;20026;-83
2023/05/31 12:11:28;;;;;;;5.50;2.70;;;;;;;;;;6119438;23;20022;-86
2023/05/31 12:13:55;;;;;;;5.22;2.75;;;;;;;;;;6121129;23;20154;-86
2023/05/31 12:16:21;;;;;;;7.05;3.20;;;;;;;;;;6120131;23;20017;-88
2023/05/31 12:18:51;;;;;;;6.38;3.17;;;;;;;;;;6121090;23;20022;-86
2023/05/31 12:21:17;;;;;;;4.70;2.97;;;;;;;;;;6120222;23;20085;-92
2023/05/31 12:23:57;;;;;;;7.38;3.03;;;;;;;;;;6119838;23;20352;-87
2023/05/31 12:26:27;;;;;;;9.15;3.88;;;;;;;;;;6120432;23;20029;-82
2023/05/31 12:28:53;;;;;;;10.30;3.95;;;;;;;;;;6119328;23;20022;-85
2023/05/31 12:31:19;;;;;;;9.50;3.78;;;;;;;;;;6120610;23;20042;-87
2023/05/31 12:33:51;;;;;;;5.90;2.75;;;;;;;;;;6121117;23;20026;-85
2023/05/31 12:36:18;;;;;;;7.63;3.10;;;;;;;;;;6096256;23;20089;-88
2023/05/31 12:38:44;;;;;;;6.43;3.35;;;;;;;;;;6119974;23;20018;-86
2023/05/31 12:41:10;;;;;;;4.65;3.20;;;;;;;;;;6120476;23;20029;-85
2023/05/31 12:43:36;;;;;;;5.95;3.63;;;;;;;;;;6119681;23;20399;-85
2023/05/31 12:46:02;;;;;;;5.00;3.22;;;;;;;;;;6121071;23;20273;-85
2023/05/31 12:48:28;;;;;;;3.70;2.80;;;;;;;;;;6121506;23;20018;-86
2023/05/31 12:50:57;;;;;;;5.68;3.47;;;;;;;;;;6122317;23;20075;-85
2023/05/31 12:53:26;;;;;;;8.25;3.88;;;;;;;;;;6122758;23;20332;-89
2023/05/31 12:55:52;;;;;;;6.47;3.25;;;;;;;;;;6122592;23;20022;-84
2023/05/31 12:58:18;;;;;;;5.57;2.83;;;;;;;;;;6124052;23;20010;-86
2023/05/31 13:00:45;;;;;;;5.40;3.40;;;;;;;;;;6124014;23;20355;-82
2023/05/31 13:03:13;;;;;;;4.80;3.03;;;;;;;;;;6121369;23;20321;-82
2023/05/31 13:05:39;;;;;;;4.60;2.63;;;;;;;;;;6120732;23;20020;-81
2023/05/31 13:08:05;;;;;;;6.82;2.60;;;;;;;;;;6121679;23;20022;-80
2023/05/31 13:10:32;;;;;;;7.53;3.13;;;;;;;;;;6123133;23;20010;-82
2023/05/31 13:12:58;;;;;;;5.53;2.90;;;;;;;;;;6123948;23;20202;-80
2023/05/31 13:15:24;;;;;;;4.22;2.40;;;;;;;;;;6121074;23;20022;-80
2023/05/31 13:17:51;;;;;;;6.70;2.50;;;;;;;;;;6123128;23;20014;-82
2023/05/31 13:20:17;;;;;;;6.57;2.58;;;;;;;;;;6121649;23;20391;-81
2023/05/31 13:22:43;;;;;;;3.83;2.28;;;;;;;;;;6121599;23;20502;-83
2023/05/31 13:25:09;;;;;;;5.93;2.58;;;;;;;;;;6123806;23;20064;-83
2023/05/31 13:27:36;;;;;;;4.82;2.03;;;;;;;;;;6122800;23;20022;-82
2023/05/31 13:30:02;;;;;;;4.70;2.28;;;;;;;;;;6122407;23;20080;-82
2023/05/31 13:32:28;;;;;;;4.18;2.80;;;;;;;;;;6120565;23;20045;-79
2023/05/31 13:34:54;;;;;;;4.30;3.17;;;;;;;;;;6121382;23;20368;-83
2023/05/31 13:37:20;;;;;;;4.68;2.13;;;;;;;;;;6123219;23;20021;-85
2023/05/31 13:39:47;;;;;;;7.05;2.30;;;;;;;;;;6124856;23;20069;-83
2023/05/31 13:42:13;;;;;;;4.25;1.77;;;;;;;;;;6126594;23;20018;-83
2023/05/31 13:44:39;;;;;;;3.70;2.15;;;;;;;;;;6124043;23;20025;-83
2023/05/31 13:47:05;;;;;;;3.20;1.92;;;;;;;;;;6122139;23;20026;-83
2023/05/31 13:49:31;;;;;;;3.47;2.00;;;;;;;;;;6122967;23;20092;-82
2023/05/31 13:51:58;;;;;;;4.75;2.10;;;;;;;;;;6123326;23;20459;-82
2023/05/31 13:54:24;;;;;;;3.60;1.75;;;;;;;;;;6123114;23;20014;-84
2023/05/31 13:56:50;;;;;;;2.83;2.20;;;;;;;;;;6121621;23;20388;-85
2023/05/31 13:59:16;;;;;;;4.18;2.08;;;;;;;;;;6123749;23;20478;-84
2023/05/31 14:01:42;;;;;;;4.63;1.88;;;;;;;;;;6122842;23;20014;-86
2023/05/31 14:04:08;;;;;;;5.80;2.08;;;;;;;;;;6122388;23;20018;-84
2023/05/31 14:06:35;;;;;;;5.30;2.20;;;;;;;;;;6122609;23;20313;-87
2023/05/31 14:09:01;;;;;;;4.50;1.73;;;;;;;;;;6123698;23;20018;-83
2023/05/31 14:11:27;;;;;;;5.20;2.03;;;;;;;;;;6121010;23;20036;-86
2023/05/31 14:13:53;;;;;;;5.07;1.83;;;;;;;;;;6121820;23;20065;-83
2023/05/31 14:16:20;;;;;;;3.13;1.63;;;;;;;;;;6120970;23;20013;-86
2023/05/31 14:18:46;;;;;;;4.85;2.33;;;;;;;;;;6121635;23;20566;-82
2023/05/31 14:21:12;;;;;;;3.28;1.60;;;;;;;;;;6122004;23;20045;-83
2023/05/31 14:23:38;;;;;;;5.05;2.33;;;;;;;;;;6122553;23;20030;-85
2023/05/31 14:26:04;;;;;;;4.20;2.08;;;;;;;;;;6120876;23;20018;-84
2023/05/31 14:28:30;;;;;;;3.08;1.65;;;;;;;;;;6120105;23;20065;-83
2023/05/31 14:30:56;;;;;;;2.88;1.88;;;;;;;;;;6120920;23;20018;-85
2023/05/31 14:33:24;;;;;;;5.53;2.42;;;;;;;;;;6121259;23;20089;-83
2023/05/31 14:35:50;;;;;;;4.05;1.80;;;;;;;;;;6123151;23;20041;-88
2023/05/31 14:38:16;;;;;;;2.15;1.92;;;;;;;;;;6122951;23;20024;-83
2023/05/31 14:40:42;;;;;;;3.38;1.60;;;;;;;;;;6120636;23;20010;-88
2023/05/31 14:43:08;;;;;;;3.45;2.00;;;;;;;;;;6096728;23;20014;-84